Time;durP1;ratioP1;P1;durP2;ratioP2;P2;SDS_P1;SDS_P2;PMS_P1;PMS_P2;Temp;Humidity;BMP_temperature;BMP_pressure;BME280_temperature;BME280_humidity;BME280_pressure;Samples;Min_cycle;Max_cycle;Signal;HPM_P1;HPM_P2
2022/07/22 00:01:34;;;;;;;6.82;3.22;;;;;;;;;;5066551;28;20029;-66
2022/07/22 00:04:01;;;;;;;6.40;4.28;;;;;;;;;;5065129;28;20021;-66
2022/07/22 00:06:28;;;;;;;5.57;3.85;;;;;;;;;;5063923;28;20032;-66
2022/07/22 00:08:54;;;;;;;6.32;3.97;;;;;;;;;;5066217;28;20035;-66
2022/07/22 00:11:20;;;;;;;7.60;4.03;;;;;;;;;;5070863;28;20551;-67
2022/07/22 00:13:46;;;;;;;10.55;4.28;;;;;;;;;;5064957;28;20674;-67
2022/07/22 00:16:13;;;;;;;7.63;4.38;;;;;;;;;;5066947;28;20028;-66
2022/07/22 00:18:39;;;;;;;4.20;3.20;;;;;;;;;;5066258;28;20029;-66
2022/07/22 00:21:05;;;;;;;5.88;3.35;;;;;;;;;;5068700;28;20510;-67
2022/07/22 00:23:31;;;;;;;7.47;3.47;;;;;;;;;;5069498;28;20509;-68
2022/07/22 00:25:57;;;;;;;6.57;3.53;;;;;;;;;;5069979;28;20024;-68
2022/07/22 00:28:23;;;;;;;4.38;3.47;;;;;;;;;;5061198;28;20052;-68
2022/07/22 00:30:49;;;;;;;8.25;3.80;;;;;;;;;;5064348;28;20032;-68
2022/07/22 00:33:16;;;;;;;5.53;3.80;;;;;;;;;;5065213;28;20029;-68
2022/07/22 00:35:42;;;;;;;5.57;3.88;;;;;;;;;;5069266;28;20028;-68
2022/07/22 00:38:08;;;;;;;9.93;4.32;;;;;;;;;;5067399;28;20028;-68
2022/07/22 00:40:35;;;;;;;7.50;4.45;;;;;;;;;;5063119;28;20035;-68
2022/07/22 00:43:01;;;;;;;5.90;3.78;;;;;;;;;;5066023;28;20046;-68
2022/07/22 00:45:27;;;;;;;5.57;3.90;;;;;;;;;;5069611;28;20039;-68
2022/07/22 00:47:53;;;;;;;6.38;3.58;;;;;;;;;;5064266;28;20410;-68
2022/07/22 00:50:20;;;;;;;4.90;4.07;;;;;;;;;;5065570;28;20045;-68
2022/07/22 00:52:47;;;;;;;6.15;3.70;;;;;;;;;;5062814;28;20036;-68
2022/07/22 00:55:13;;;;;;;5.38;3.88;;;;;;;;;;5069175;28;20017;-68
2022/07/22 00:57:40;;;;;;;4.68;3.70;;;;;;;;;;5065558;28;20110;-69
2022/07/22 01:00:08;;;;;;;7.18;4.10;;;;;;;;;;5064396;28;20024;-69
2022/07/22 01:02:34;;;;;;;5.80;3.60;;;;;;;;;;5059177;28;20474;-69
2022/07/22 01:05:00;;;;;;;6.20;3.45;;;;;;;;;;5065576;28;20052;-67
2022/07/22 01:07:26;;;;;;;5.53;3.88;;;;;;;;;;5060684;28;20040;-67
2022/07/22 01:09:53;;;;;;;8.07;4.13;;;;;;;;;;5065693;28;20032;-66
2022/07/22 01:12:19;;;;;;;7.63;3.75;;;;;;;;;;5068796;28;20028;-67
2022/07/22 01:14:45;;;;;;;8.02;4.63;;;;;;;;;;5062148;28;20557;-67
2022/07/22 01:17:11;;;;;;;9.38;4.13;;;;;;;;;;5065631;28;20028;-66
2022/07/22 01:19:37;;;;;;;6.00;3.90;;;;;;;;;;5063370;28;20382;-66
2022/07/22 01:22:05;;;;;;;8.27;4.50;;;;;;;;;;5065187;28;20029;-66
2022/07/22 01:24:31;;;;;;;5.60;3.88;;;;;;;;;;5067240;28;20032;-68
2022/07/22 01:26:57;;;;;;;4.43;3.58;;;;;;;;;;5014242;28;1351680;-67
2022/07/22 01:29:23;;;;;;;4.90;3.78;;;;;;;;;;5064658;28;20054;-67
2022/07/22 01:31:50;;;;;;;4.72;3.90;;;;;;;;;;5058770;28;20099;-67
2022/07/22 01:34:16;;;;;;;6.85;4.10;;;;;;;;;;5065913;28;20032;-67
2022/07/22 01:36:42;;;;;;;4.38;3.65;;;;;;;;;;5066773;28;20036;-66
2022/07/22 01:39:08;;;;;;;5.95;4.50;;;;;;;;;;5063851;28;20502;-67
2022/07/22 01:41:35;;;;;;;7.53;4.97;;;;;;;;;;5065742;28;20024;-67
2022/07/22 01:44:02;;;;;;;8.60;4.28;;;;;;;;;;5064922;28;20028;-67
2022/07/22 01:46:28;;;;;;;7.75;4.00;;;;;;;;;;5067481;28;20032;-68
2022/07/22 01:48:55;;;;;;;5.95;4.20;;;;;;;;;;5066327;28;20031;-67
2022/07/22 01:51:21;;;;;;;5.75;3.80;;;;;;;;;;5068088;28;20079;-67
2022/07/22 01:53:48;;;;;;;6.80;3.95;;;;;;;;;;5066587;28;20028;-68
2022/07/22 01:56:15;;;;;;;7.50;4.40;;;;;;;;;;5066518;28;20424;-68
2022/07/22 01:58:47;;;;;;;5.43;3.75;;;;;;;;;;5066327;28;20028;-66
2022/07/22 02:01:16;;;;;;;5.90;4.30;;;;;;;;;;5068595;28;20021;-67
2022/07/22 02:03:42;;;;;;;6.65;4.03;;;;;;;;;;5070644;28;20124;-67
2022/07/22 02:06:08;;;;;;;7.95;4.32;;;;;;;;;;5069901;28;20032;-67
2022/07/22 02:08:35;;;;;;;5.50;4.20;;;;;;;;;;5070908;28;20382;-67
2022/07/22 02:11:13;;;;;;;9.60;4.30;;;;;;;;;;5070443;28;20112;-67
2022/07/22 02:13:52;;;;;;;6.88;3.90;;;;;;;;;;5071379;28;20555;-67
2022/07/22 02:16:18;;;;;;;7.35;4.13;;;;;;;;;;5072707;28;20028;-67
2022/07/22 02:18:44;;;;;;;7.03;4.07;;;;;;;;;;5070620;28;20047;-67
2022/07/22 02:21:11;;;;;;;6.47;3.97;;;;;;;;;;5069615;28;20550;-67
2022/07/22 02:23:37;;;;;;;6.85;3.70;;;;;;;;;;5060297;28;20025;-67
2022/07/22 02:26:04;;;;;;;5.75;4.20;;;;;;;;;;5070653;28;20025;-67
2022/07/22 02:28:30;;;;;;;7.68;3.92;;;;;;;;;;5065939;28;20045;-67
2022/07/22 02:30:56;;;;;;;5.65;3.80;;;;;;;;;;5068927;28;20052;-67
2022/07/22 02:33:22;;;;;;;5.45;3.53;;;;;;;;;;5065194;28;20043;-67
2022/07/22 02:35:49;;;;;;;9.00;4.15;;;;;;;;;;5070543;28;20060;-67
2022/07/22 02:38:15;;;;;;;7.85;4.20;;;;;;;;;;5069503;28;20529;-67
2022/07/22 02:40:42;;;;;;;7.10;3.88;;;;;;;;;;5067849;28;20024;-67
2022/07/22 02:43:11;;;;;;;8.60;4.90;;;;;;;;;;5068041;28;20048;-67
2022/07/22 02:45:37;;;;;;;6.55;3.45;;;;;;;;;;5070156;28;20125;-68
2022/07/22 02:48:03;;;;;;;4.28;3.55;;;;;;;;;;5065710;28;20020;-68
2022/07/22 02:50:33;;;;;;;7.25;3.92;;;;;;;;;;5060882;28;20028;-68
2022/07/22 02:52:59;;;;;;;7.15;4.25;;;;;;;;;;5066607;28;20123;-66
2022/07/22 02:55:30;;;;;;;7.72;4.45;;;;;;;;;;5070447;28;20036;-66
2022/07/22 02:58:04;;;;;;;7.03;3.72;;;;;;;;;;5068647;28;20040;-66
2022/07/22 03:00:30;;;;;;;7.35;5.00;;;;;;;;;;5065676;28;20019;-67
2022/07/22 03:02:56;;;;;;;6.60;4.15;;;;;;;;;;5068896;28;20414;-66
2022/07/22 03:05:22;;;;;;;5.90;3.75;;;;;;;;;;5064793;28;20039;-67
2022/07/22 03:07:53;;;;;;;8.98;4.35;;;;;;;;;;5048453;28;20051;-66
2022/07/22 03:10:20;;;;;;;5.47;3.50;;;;;;;;;;5062693;28;20037;-67
2022/07/22 03:12:46;;;;;;;6.95;3.95;;;;;;;;;;5068854;28;22179;-67
2022/07/22 03:15:13;;;;;;;10.63;4.63;;;;;;;;;;5066966;28;20024;-67
2022/07/22 03:17:39;;;;;;;6.15;4.53;;;;;;;;;;5067107;28;20032;-67
2022/07/22 03:20:07;;;;;;;5.28;4.25;;;;;;;;;;5066547;28;20028;-69
2022/07/22 03:22:34;;;;;;;7.82;3.83;;;;;;;;;;5070336;28;20056;-67
2022/07/22 03:25:00;;;;;;;4.47;3.58;;;;;;;;;;5065288;28;20051;-66
2022/07/22 03:27:26;;;;;;;5.68;3.95;;;;;;;;;;5065930;28;20049;-66
2022/07/22 03:29:53;;;;;;;6.75;3.78;;;;;;;;;;5059060;28;20048;-67
2022/07/22 03:32:19;;;;;;;4.03;3.13;;;;;;;;;;5070751;28;20032;-67
2022/07/22 03:34:47;;;;;;;4.97;3.95;;;;;;;;;;5068622;28;20068;-66
2022/07/22 03:37:14;;;;;;;5.47;3.63;;;;;;;;;;5065891;28;20025;-66
2022/07/22 03:39:42;;;;;;;6.10;4.22;;;;;;;;;;5058057;28;20017;-67
2022/07/22 03:42:10;;;;;;;6.15;3.55;;;;;;;;;;5068295;28;20044;-67
2022/07/22 03:44:44;;;;;;;5.97;4.25;;;;;;;;;;5068310;28;20028;-67
2022/07/22 03:47:10;;;;;;;5.28;4.22;;;;;;;;;;5065083;28;20060;-67
2022/07/22 03:49:36;;;;;;;6.90;3.88;;;;;;;;;;5064755;28;20028;-66
2022/07/22 03:52:05;;;;;;;6.15;4.03;;;;;;;;;;5069311;28;20032;-66
2022/07/22 03:54:31;;;;;;;5.30;3.83;;;;;;;;;;5067094;28;20520;-66
2022/07/22 03:56:57;;;;;;;8.15;3.90;;;;;;;;;;5068542;28;20543;-67
2022/07/22 03:59:23;;;;;;;6.60;3.80;;;;;;;;;;5063596;28;20020;-67
2022/07/22 04:01:49;;;;;;;6.40;4.20;;;;;;;;;;5057662;28;21153;-67
2022/07/22 04:04:15;;;;;;;8.23;4.18;;;;;;;;;;5043055;28;20513;-66
2022/07/22 04:06:45;;;;;;;6.68;3.88;;;;;;;;;;5053340;28;20033;-66
2022/07/22 04:09:18;;;;;;;8.30;3.58;;;;;;;;;;5049615;28;20115;-66
2022/07/22 04:11:44;;;;;;;8.18;3.92;;;;;;;;;;5059590;28;20555;-67
2022/07/22 04:14:11;;;;;;;6.88;3.75;;;;;;;;;;5069131;28;20405;-67
2022/07/22 04:16:37;;;;;;;5.22;3.40;;;;;;;;;;5069247;28;20107;-67
2022/07/22 04:19:08;;;;;;;6.03;3.72;;;;;;;;;;5064812;28;20150;-68
2022/07/22 04:21:52;;;;;;;9.20;3.88;;;;;;;;;;5064593;28;20494;-68
2022/07/22 04:24:20;;;;;;;4.97;3.45;;;;;;;;;;5068734;28;20067;-66
2022/07/22 04:26:48;;;;;;;7.63;3.30;;;;;;;;;;5070053;28;20021;-66
2022/07/22 04:29:14;;;;;;;10.55;4.15;;;;;;;;;;5064564;28;20044;-67
2022/07/22 04:31:41;;;;;;;5.85;2.92;;;;;;;;;;5066791;28;20020;-66
2022/07/22 04:34:12;;;;;;;13.00;3.80;;;;;;;;;;5057542;28;20020;-67
2022/07/22 04:36:39;;;;;;;10.40;3.53;;;;;;;;;;5064550;28;20036;-67
2022/07/22 04:39:05;;;;;;;8.63;3.58;;;;;;;;;;5066310;28;20028;-67
2022/07/22 04:41:32;;;;;;;15.00;5.43;;;;;;;;;;5068607;28;20492;-67
2022/07/22 04:43:59;;;;;;;8.63;3.00;;;;;;;;;;5066127;28;20448;-67
2022/07/22 04:46:28;;;;;;;11.10;3.38;;;;;;;;;;5066517;28;20436;-67
2022/07/22 04:48:56;;;;;;;14.00;3.65;;;;;;;;;;5062683;28;20033;-67
2022/07/22 04:51:24;;;;;;;12.88;3.20;;;;;;;;;;5068213;28;20123;-67
2022/07/22 04:53:56;;;;;;;13.27;3.67;;;;;;;;;;5069273;28;20441;-67
2022/07/22 04:56:23;;;;;;;10.50;3.47;;;;;;;;;;5065231;28;20029;-66
2022/07/22 04:58:51;;;;;;;12.20;3.13;;;;;;;;;;5067553;28;20556;-68
2022/07/22 05:01:17;;;;;;;12.43;3.38;;;;;;;;;;5067427;28;20077;-68
2022/07/22 05:03:48;;;;;;;12.57;3.60;;;;;;;;;;5066399;28;20032;-68
2022/07/22 05:06:15;;;;;;;18.95;4.40;;;;;;;;;;5062490;28;20166;-68
2022/07/22 05:08:43;;;;;;;13.35;4.20;;;;;;;;;;5066693;28;20021;-68
2022/07/22 05:11:10;;;;;;;7.35;3.00;;;;;;;;;;5065292;28;20020;-68
2022/07/22 05:13:36;;;;;;;12.32;3.50;;;;;;;;;;5065361;28;20071;-67
2022/07/22 05:16:03;;;;;;;8.20;3.03;;;;;;;;;;5070966;28;20028;-67
2022/07/22 05:18:31;;;;;;;12.73;3.88;;;;;;;;;;5060519;28;20036;-67
2022/07/22 05:20:58;;;;;;;10.00;3.13;;;;;;;;;;5059933;28;20475;-67
2022/07/22 05:23:24;;;;;;;8.80;3.63;;;;;;;;;;5066445;28;20040;-67
2022/07/22 05:25:50;;;;;;;11.65;3.55;;;;;;;;;;5067146;28;20070;-68
2022/07/22 05:28:19;;;;;;;15.43;3.35;;;;;;;;;;5059352;28;20056;-68
2022/07/22 05:30:46;;;;;;;16.23;3.75;;;;;;;;;;5063208;28;20060;-66
2022/07/22 05:33:14;;;;;;;9.20;2.88;;;;;;;;;;5066133;28;20032;-73
2022/07/22 05:36:18;;;;;;;8.75;2.95;;;;;;;;;;5049762;28;20044;-71
2022/07/22 05:38:47;;;;;;;7.50;3.35;;;;;;;;;;5067723;28;20029;-66
2022/07/22 05:41:14;;;;;;;13.80;3.35;;;;;;;;;;5066921;28;20474;-66
2022/07/22 05:43:40;;;;;;;15.70;3.25;;;;;;;;;;5075352;28;20024;-66
2022/07/22 05:46:08;;;;;;;13.13;3.50;;;;;;;;;;5048329;28;20035;-66
2022/07/22 05:48:34;;;;;;;13.27;4.78;;;;;;;;;;5068711;28;20052;-66
2022/07/22 05:51:02;;;;;;;16.85;3.42;;;;;;;;;;5070016;28;20033;-66
2022/07/22 05:53:30;;;;;;;14.98;3.17;;;;;;;;;;5068192;28;20025;-66
2022/07/22 05:55:57;;;;;;;11.38;3.03;;;;;;;;;;5069113;28;20029;-66
2022/07/22 05:58:23;;;;;;;15.77;3.63;;;;;;;;;;5061601;28;20375;-66
2022/07/22 06:00:50;;;;;;;14.95;2.88;;;;;;;;;;5064793;28;20032;-65
2022/07/22 06:03:16;;;;;;;10.23;3.28;;;;;;;;;;5063194;28;20467;-65
2022/07/22 06:05:42;;;;;;;13.18;3.53;;;;;;;;;;5066154;28;20024;-65
2022/07/22 06:08:10;;;;;;;15.63;3.28;;;;;;;;;;5068381;28;20477;-66
2022/07/22 06:10:46;;;;;;;15.32;3.65;;;;;;;;;;5067170;28;20417;-66
2022/07/22 06:13:12;;;;;;;12.85;3.58;;;;;;;;;;5061407;28;20024;-66
2022/07/22 06:15:41;;;;;;;12.57;3.60;;;;;;;;;;5066362;28;20024;-66
2022/07/22 06:18:07;;;;;;;14.85;3.20;;;;;;;;;;5075547;28;20036;-63
2022/07/22 06:20:33;;;;;;;12.10;3.58;;;;;;;;;;5071266;28;20021;-63
2022/07/22 06:23:00;;;;;;;15.05;4.00;;;;;;;;;;5065251;28;20029;-63
2022/07/22 06:25:26;;;;;;;12.57;2.95;;;;;;;;;;5069316;28;20486;-63
2022/07/22 06:27:53;;;;;;;17.15;3.45;;;;;;;;;;5067483;28;20098;-64
2022/07/22 06:30:20;;;;;;;10.07;3.40;;;;;;;;;;5070206;28;20520;-64
2022/07/22 06:32:46;;;;;;;8.95;2.72;;;;;;;;;;5063762;28;20029;-64
2022/07/22 06:35:13;;;;;;;13.25;3.55;;;;;;;;;;5063470;28;20490;-63
2022/07/22 06:37:39;;;;;;;10.55;3.38;;;;;;;;;;5066861;28;20027;-63
2022/07/22 06:40:05;;;;;;;11.70;2.75;;;;;;;;;;5065562;28;20044;-63
2022/07/22 06:42:51;;;;;;;13.73;3.28;;;;;;;;;;5070480;28;20021;-63
2022/07/22 06:45:34;;;;;;;12.32;4.07;;;;;;;;;;5062338;28;20062;-63
2022/07/22 06:48:10;;;;;;;8.82;2.78;;;;;;;;;;5067204;28;20031;-63
2022/07/22 06:50:36;;;;;;;11.50;2.85;;;;;;;;;;5066515;28;20025;-63
2022/07/22 06:53:09;;;;;;;;;;;;;;;;;;5070466;28;20043;-63
2022/07/22 06:55:35;;;;;;;10.50;2.78;;;;;;;;;;5069139;28;19912;-63
2022/07/22 06:58:09;;;;;;;6.82;2.88;;;;;;;;;;5068005;28;20112;-63
2022/07/22 07:00:35;;;;;;;10.55;2.78;;;;;;;;;;5084226;28;20033;-63
2022/07/22 07:03:22;;;;;;;10.13;3.10;;;;;;;;;;5071671;28;20397;-63
2022/07/22 07:05:50;;;;;;;9.88;3.25;;;;;;;;;;5070405;28;20028;-63
2022/07/22 07:08:17;;;;;;;12.60;3.60;;;;;;;;;;5067649;28;20028;-63
2022/07/22 07:10:43;;;;;;;11.15;3.00;;;;;;;;;;5066794;28;20029;-63
2022/07/22 07:13:13;;;;;;;10.13;3.30;;;;;;;;;;5068766;28;20119;-63
2022/07/22 07:15:43;;;;;;;10.27;2.40;;;;;;;;;;5065219;28;20021;-63
2022/07/22 07:18:10;;;;;;;7.78;2.78;;;;;;;;;;5085082;28;20440;-63
2022/07/22 07:20:37;;;;;;;10.95;2.78;;;;;;;;;;5066773;28;20490;-63
2022/07/22 07:23:06;;;;;;;10.13;2.53;;;;;;;;;;5068337;28;20033;-65
2022/07/22 07:25:40;;;;;;;22.45;3.70;;;;;;;;;;5081210;28;20539;-63
2022/07/22 07:28:06;;;;;;;12.13;3.30;;;;;;;;;;5068904;28;20041;-62
2022/07/22 07:30:53;;;;;;;13.02;3.10;;;;;;;;;;5066855;28;20032;-63
2022/07/22 07:33:20;;;;;;;18.75;3.47;;;;;;;;;;5073535;28;20028;-63
2022/07/22 07:35:47;;;;;;;11.75;2.25;;;;;;;;;;5068569;28;20063;-63
2022/07/22 07:38:17;;;;;;;9.02;2.90;;;;;;;;;;5068131;28;20024;-63
2022/07/22 07:40:43;;;;;;;8.40;2.95;;;;;;;;;;5064933;28;20667;-63
2022/07/22 07:43:11;;;;;;;8.65;2.88;;;;;;;;;;5065039;28;20464;-63
2022/07/22 07:45:37;;;;;;;18.80;3.92;;;;;;;;;;5068945;28;20028;-63
2022/07/22 07:48:04;;;;;;;16.25;4.28;;;;;;;;;;5067954;28;20506;-63
2022/07/22 07:50:31;;;;;;;9.70;3.40;;;;;;;;;;5067260;28;20568;-63
2022/07/22 07:52:58;;;;;;;9.85;3.60;;;;;;;;;;5066984;28;20033;-63
2022/07/22 07:55:26;;;;;;;16.98;3.28;;;;;;;;;;5068768;28;20124;-63
2022/07/22 07:57:52;;;;;;;15.70;3.13;;;;;;;;;;5065421;28;20386;-63
2022/07/22 08:00:21;;;;;;;24.88;5.38;;;;;;;;;;5063575;28;20031;-63
2022/07/22 08:02:48;;;;;;;16.02;3.80;;;;;;;;;;5067625;28;20020;-63
2022/07/22 08:05:15;;;;;;;7.93;3.47;;;;;;;;;;5069721;28;20490;-63
2022/07/22 08:07:41;;;;;;;13.75;3.85;;;;;;;;;;5068491;28;20037;-63
2022/07/22 08:10:10;;;;;;;9.75;3.50;;;;;;;;;;5068893;28;20020;-63
2022/07/22 08:13:05;;;;;;;10.75;3.35;;;;;;;;;;5058373;28;20032;-63
2022/07/22 08:15:41;;;;;;;10.57;3.50;;;;;;;;;;5066686;28;20036;-63
2022/07/22 08:18:21;;;;;;;14.43;3.90;;;;;;;;;;5068077;28;20031;-63
2022/07/22 08:20:47;;;;;;;9.23;3.45;;;;;;;;;;5068520;28;20454;-63
2022/07/22 08:23:13;;;;;;;15.10;4.00;;;;;;;;;;5068772;28;20383;-63
2022/07/22 08:25:43;;;;;;;13.52;4.28;;;;;;;;;;5066877;28;20028;-63
2022/07/22 08:28:10;;;;;;;10.00;3.53;;;;;;;;;;5078724;28;20052;-61
2022/07/22 08:30:36;;;;;;;15.43;3.95;;;;;;;;;;5067271;28;20032;-61
2022/07/22 08:33:02;;;;;;;18.38;4.00;;;;;;;;;;5066135;28;20031;-63
2022/07/22 08:35:29;;;;;;;14.30;3.63;;;;;;;;;;5045083;28;20036;-62
2022/07/22 08:37:55;;;;;;;11.93;4.57;;;;;;;;;;5061032;28;20104;-61
2022/07/22 08:40:22;;;;;;;15.32;4.25;;;;;;;;;;5065902;28;20036;-61
2022/07/22 08:42:49;;;;;;;10.18;3.67;;;;;;;;;;5066152;28;20060;-61
2022/07/22 08:45:17;;;;;;;15.07;4.38;;;;;;;;;;5050862;28;20498;-61
2022/07/22 08:47:44;;;;;;;16.85;4.13;;;;;;;;;;5067587;28;20107;-61
2022/07/22 08:50:19;;;;;;;13.68;3.90;;;;;;;;;;5069775;28;20033;-61
2022/07/22 08:53:01;;;;;;;;;;;;;;;;;;5065405;28;20039;-63
2022/07/22 08:55:27;;;;;;;13.68;3.70;;;;;;;;;;5067117;28;19912;-63
2022/07/22 08:57:53;;;;;;;10.35;4.25;;;;;;;;;;5066515;28;20390;-62
2022/07/22 09:00:21;;;;;;;12.40;3.95;;;;;;;;;;5065492;28;20029;-62
2022/07/22 09:02:47;;;;;;;18.52;4.05;;;;;;;;;;5064056;28;20017;-62
2022/07/22 09:05:16;;;;;;;11.55;3.83;;;;;;;;;;5067180;28;20115;-63
2022/07/22 09:07:43;;;;;;;13.75;3.55;;;;;;;;;;5064479;28;20016;-63
2022/07/22 09:10:22;;;;;;;10.63;3.97;;;;;;;;;;5064252;28;20045;-63
2022/07/22 09:13:11;;;;;;;11.52;3.85;;;;;;;;;;5065837;28;20044;-63
2022/07/22 09:16:06;;;;;;;10.65;3.78;;;;;;;;;;5042065;28;20107;-63
2022/07/22 09:18:54;;;;;;;14.67;4.60;;;;;;;;;;5025754;28;20041;-63
2022/07/22 09:21:45;;;;;;;10.27;3.97;;;;;;;;;;5042445;28;20627;-63
2022/07/22 09:24:27;;;;;;;15.07;3.30;;;;;;;;;;5031550;28;20453;-63
2022/07/22 09:26:55;;;;;;;13.02;3.42;;;;;;;;;;5015354;28;20565;-63
2022/07/22 09:29:35;;;;;;;10.60;3.90;;;;;;;;;;5026710;28;20032;-63
2022/07/22 09:32:38;;;;;;;10.52;3.97;;;;;;;;;;5036163;28;20045;-63
2022/07/22 09:35:19;;;;;;;8.88;2.97;;;;;;;;;;5043847;28;20033;-63
2022/07/22 09:37:51;;;;;;;12.55;3.65;;;;;;;;;;5026834;28;20025;-63
2022/07/22 09:40:19;;;;;;;6.47;3.10;;;;;;;;;;5028824;28;20053;-63
2022/07/22 09:42:46;;;;;;;10.93;3.03;;;;;;;;;;5032460;28;20021;-63
2022/07/22 09:45:12;;;;;;;10.00;3.22;;;;;;;;;;5041049;28;20406;-63
2022/07/22 09:47:44;;;;;;;6.32;2.42;;;;;;;;;;5030195;28;20025;-63
2022/07/22 09:50:30;;;;;;;8.63;2.67;;;;;;;;;;5047359;28;20462;-63
2022/07/22 09:53:16;;;;;;;10.60;2.85;;;;;;;;;;5059170;28;20132;-63
2022/07/22 09:55:48;;;;;;;;;;;;;;;;;;5066626;28;20029;-63
2022/07/22 09:58:14;;;;;;;6.75;2.50;;;;;;;;;;5059944;28;19916;-63
2022/07/22 10:00:41;;;;;;;11.75;3.05;;;;;;;;;;5048421;28;20490;-63
2022/07/22 10:03:10;;;;;;;5.95;2.50;;;;;;;;;;5076052;28;20025;-63
2022/07/22 10:05:37;;;;;;;7.50;2.00;;;;;;;;;;5066411;28;20474;-63
2022/07/22 10:08:05;;;;;;;7.65;2.80;;;;;;;;;;5064982;28;20028;-63
2022/07/22 10:10:34;;;;;;;8.55;2.28;;;;;;;;;;5064477;28;20460;-63
2022/07/22 10:13:01;;;;;;;9.00;2.63;;;;;;;;;;5060931;28;20032;-63
2022/07/22 10:15:28;;;;;;;8.57;2.67;;;;;;;;;;5062801;28;20151;-63
2022/07/22 10:17:56;;;;;;;6.95;2.70;;;;;;;;;;5059176;28;20140;-63
2022/07/22 10:20:27;;;;;;;12.60;3.00;;;;;;;;;;5066213;28;20029;-63
2022/07/22 10:22:55;;;;;;;5.60;2.83;;;;;;;;;;5061825;28;20020;-63
2022/07/22 10:25:23;;;;;;;6.25;2.65;;;;;;;;;;5057527;28;20781;-63
2022/07/22 10:27:51;;;;;;;13.75;2.50;;;;;;;;;;5067263;28;20048;-63
2022/07/22 10:30:19;;;;;;;9.40;2.72;;;;;;;;;;5057779;28;20020;-63
2022/07/22 10:32:45;;;;;;;14.48;2.63;;;;;;;;;;5056208;28;20062;-63
2022/07/22 10:35:11;;;;;;;14.18;3.53;;;;;;;;;;5066861;28;20024;-63
2022/07/22 10:37:43;;;;;;;9.68;2.90;;;;;;;;;;5064466;28;20062;-63
2022/07/22 10:40:17;;;;;;;7.03;2.75;;;;;;;;;;5067732;28;20033;-63
2022/07/22 10:42:58;;;;;;;10.23;2.28;;;;;;;;;;5064495;28;20039;-63
2022/07/22 10:45:25;;;;;;;6.53;2.47;;;;;;;;;;5069406;28;20127;-63
2022/07/22 10:47:55;;;;;;;9.38;2.45;;;;;;;;;;5060058;28;20032;-63
2022/07/22 10:50:39;;;;;;;9.60;2.92;;;;;;;;;;5063014;28;20490;-63
2022/07/22 10:53:10;;;;;;;9.13;2.50;;;;;;;;;;5066649;28;20418;-63
2022/07/22 10:55:36;;;;;;;6.35;2.30;;;;;;;;;;5062636;28;20033;-63
2022/07/22 10:58:21;;;;;;;8.70;2.30;;;;;;;;;;5060296;28;20025;-63
2022/07/22 11:00:48;;;;;;;5.63;2.17;;;;;;;;;;5063818;28;20043;-63
2022/07/22 11:03:24;;;;;;;8.20;2.20;;;;;;;;;;5063441;28;20028;-63
2022/07/22 11:05:51;;;;;;;6.93;2.40;;;;;;;;;;5061938;28;20543;-63
2022/07/22 11:08:18;;;;;;;16.98;2.88;;;;;;;;;;5063705;28;20037;-63
2022/07/22 11:10:48;;;;;;;9.90;2.20;;;;;;;;;;5069678;28;20028;-63
2022/07/22 11:13:31;;;;;;;8.88;1.95;;;;;;;;;;5064784;28;20028;-64
2022/07/22 11:15:57;;;;;;;6.60;1.90;;;;;;;;;;5062340;28;20085;-63
2022/07/22 11:18:23;;;;;;;6.97;2.05;;;;;;;;;;5070558;28;20056;-64
2022/07/22 11:20:49;;;;;;;11.52;2.40;;;;;;;;;;5070603;28;20119;-64
2022/07/22 11:23:16;;;;;;;5.07;2.00;;;;;;;;;;5069310;28;20067;-64
2022/07/22 11:25:43;;;;;;;8.57;2.05;;;;;;;;;;5066580;28;20032;-66
2022/07/22 11:28:09;;;;;;;5.93;2.13;;;;;;;;;;5063474;28;20521;-66
2022/07/22 11:30:35;;;;;;;7.55;2.17;;;;;;;;;;5071180;28;20111;-65
2022/07/22 11:33:03;;;;;;;7.47;1.80;;;;;;;;;;5059983;28;20033;-65
2022/07/22 11:35:29;;;;;;;7.97;1.98;;;;;;;;;;5064651;28;20024;-65
2022/07/22 11:37:55;;;;;;;8.95;2.08;;;;;;;;;;5067550;28;20371;-66
2022/07/22 11:40:21;;;;;;;11.40;2.42;;;;;;;;;;5062998;28;20499;-66
2022/07/22 11:43:00;;;;;;;6.97;2.28;;;;;;;;;;5060380;28;20039;-66
2022/07/22 11:45:26;;;;;;;6.03;2.20;;;;;;;;;;5065803;28;20051;-65
2022/07/22 11:47:52;;;;;;;6.20;2.40;;;;;;;;;;5058595;28;20650;-66
2022/07/22 11:50:29;;;;;;;6.35;2.70;;;;;;;;;;5065549;28;20278;-66
2022/07/22 11:52:55;;;;;;;10.23;2.25;;;;;;;;;;5066914;28;20016;-66
2022/07/22 11:55:21;;;;;;;5.78;1.90;;;;;;;;;;5065981;28;20056;-66
2022/07/22 11:57:50;;;;;;;3.60;1.90;;;;;;;;;;5064445;28;20496;-65
2022/07/22 12:00:17;;;;;;;9.00;2.20;;;;;;;;;;5061514;28;20024;-65
2022/07/22 12:02:43;;;;;;;8.52;2.10;;;;;;;;;;5058307;28;20919;-66
2022/07/22 12:05:09;;;;;;;5.10;2.15;;;;;;;;;;5059416;28;20043;-66
2022/07/22 12:07:36;;;;;;;8.13;1.98;;;;;;;;;;5058840;28;20078;-66
2022/07/22 12:10:02;;;;;;;7.25;2.22;;;;;;;;;;5061070;28;20035;-66
2022/07/22 12:12:41;;;;;;;14.27;2.40;;;;;;;;;;5058839;28;20410;-69
2022/07/22 12:15:08;;;;;;;7.70;1.70;;;;;;;;;;5058735;28;20544;-66
2022/07/22 12:17:34;;;;;;;4.90;1.70;;;;;;;;;;5069273;28;20537;-66
2022/07/22 12:20:10;;;;;;;6.45;1.92;;;;;;;;;;5066763;28;20025;-66
2022/07/22 12:22:45;;;;;;;7.00;2.10;;;;;;;;;;5064435;28;20024;-68
2022/07/22 12:25:11;;;;;;;4.32;1.90;;;;;;;;;;5065481;28;20033;-66
2022/07/22 12:27:37;;;;;;;7.45;2.72;;;;;;;;;;5065637;28;20051;-66
2022/07/22 12:30:12;;;;;;;7.15;2.22;;;;;;;;;;5060517;28;20033;-67
2022/07/22 12:32:47;;;;;;;5.15;1.75;;;;;;;;;;5057185;28;20033;-67
2022/07/22 12:35:14;;;;;;;5.57;2.08;;;;;;;;;;5062012;28;20433;-67
2022/07/22 12:37:40;;;;;;;7.03;2.03;;;;;;;;;;5069973;28;20138;-66
2022/07/22 12:40:23;;;;;;;8.18;1.98;;;;;;;;;;5064855;28;20541;-66
2022/07/22 12:43:01;;;;;;;5.63;1.98;;;;;;;;;;5068292;28;20040;-67
2022/07/22 12:45:28;;;;;;;8.63;2.20;;;;;;;;;;5068752;28;20047;-67
2022/07/22 12:48:03;;;;;;;7.88;1.63;;;;;;;;;;5063405;28;20029;-67
2022/07/22 12:50:30;;;;;;;12.32;2.47;;;;;;;;;;5067459;28;20055;-69
2022/07/22 12:53:07;;;;;;;5.95;1.90;;;;;;;;;;5064853;28;20494;-68
2022/07/22 12:55:35;;;;;;;7.82;1.67;;;;;;;;;;5067956;28;20060;-67
2022/07/22 12:58:01;;;;;;;5.03;1.55;;;;;;;;;;5066244;28;20021;-67
2022/07/22 13:00:28;;;;;;;9.77;2.25;;;;;;;;;;5066098;28;20067;-67
2022/07/22 13:02:55;;;;;;;6.03;2.05;;;;;;;;;;5060151;28;20031;-67
2022/07/22 13:05:21;;;;;;;7.32;2.22;;;;;;;;;;5064560;28;20067;-67
2022/07/22 13:07:48;;;;;;;4.85;2.13;;;;;;;;;;5065572;28;20029;-67
2022/07/22 13:10:14;;;;;;;6.00;2.45;;;;;;;;;;5068182;28;20550;-67
2022/07/22 13:12:41;;;;;;;7.57;2.10;;;;;;;;;;5069961;28;20070;-67
2022/07/22 13:15:07;;;;;;;8.27;2.05;;;;;;;;;;5065647;28;20501;-67
2022/07/22 13:17:34;;;;;;;4.28;1.70;;;;;;;;;;5065617;28;20051;-67
2022/07/22 13:20:00;;;;;;;3.13;1.65;;;;;;;;;;5067858;28;20478;-66
2022/07/22 13:22:26;;;;;;;6.60;1.80;;;;;;;;;;5066263;28;20028;-67
2022/07/22 13:24:52;;;;;;;4.25;1.60;;;;;;;;;;5068049;28;20402;-67
2022/07/22 13:27:18;;;;;;;5.72;1.77;;;;;;;;;;5067189;28;20064;-67
2022/07/22 13:29:44;;;;;;;8.15;2.38;;;;;;;;;;5064821;28;20111;-67
2022/07/22 13:32:10;;;;;;;4.78;1.67;;;;;;;;;;5067077;28;20086;-67
2022/07/22 13:34:37;;;;;;;4.50;1.90;;;;;;;;;;5067237;28;20448;-67
2022/07/22 13:37:03;;;;;;;7.32;1.60;;;;;;;;;;5069820;28;20016;-67
2022/07/22 13:39:29;;;;;;;5.72;1.60;;;;;;;;;;5068923;28;20026;-67
2022/07/22 13:41:55;;;;;;;7.05;1.90;;;;;;;;;;5068875;28;20036;-67
2022/07/22 13:44:21;;;;;;;9.15;1.85;;;;;;;;;;5063070;28;20039;-67
2022/07/22 13:46:48;;;;;;;11.10;1.80;;;;;;;;;;5070618;28;20029;-67
2022/07/22 13:49:15;;;;;;;6.18;1.90;;;;;;;;;;5064337;28;20428;-67
2022/07/22 13:51:41;;;;;;;9.50;2.10;;;;;;;;;;5067342;28;20075;-67
2022/07/22 13:54:07;;;;;;;6.93;1.75;;;;;;;;;;5064135;28;20082;-67
2022/07/22 13:56:34;;;;;;;5.22;1.90;;;;;;;;;;5062055;28;20021;-66
2022/07/22 13:59:00;;;;;;;8.77;2.03;;;;;;;;;;5068360;28;20487;-67
2022/07/22 14:01:27;;;;;;;8.38;1.88;;;;;;;;;;5068068;28;20521;-67
2022/07/22 14:03:53;;;;;;;7.07;1.83;;;;;;;;;;5062976;28;20021;-67
2022/07/22 14:06:19;;;;;;;4.68;2.15;;;;;;;;;;5070305;28;20043;-67
2022/07/22 14:08:45;;;;;;;5.45;2.20;;;;;;;;;;5070240;28;20033;-66
2022/07/22 14:11:11;;;;;;;7.90;2.05;;;;;;;;;;5072587;28;20024;-67
2022/07/22 14:13:37;;;;;;;9.70;2.28;;;;;;;;;;5069318;28;20027;-67
2022/07/22 14:18:48;;;;;;;8.00;2.05;;;;;;;;;;5073141;28;20508;-67
2022/07/22 14:21:14;;;;;;;4.80;2.08;;;;;;;;;;5070033;28;20009;-67
2022/07/22 14:23:40;;;;;;;5.43;1.85;;;;;;;;;;5069765;28;20021;-67
2022/07/22 14:26:07;;;;;;;6.03;1.70;;;;;;;;;;5071033;28;20486;-67
2022/07/22 14:28:33;;;;;;;12.45;2.15;;;;;;;;;;5070208;28;20139;-67
2022/07/22 14:30:59;;;;;;;7.43;1.88;;;;;;;;;;5071727;28;20068;-67
2022/07/22 14:33:25;;;;;;;7.00;1.90;;;;;;;;;;5070388;28;20035;-67
2022/07/22 14:35:51;;;;;;;6.78;1.90;;;;;;;;;;5070005;28;20039;-67
2022/07/22 14:38:18;;;;;;;5.20;1.98;;;;;;;;;;5070663;28;20020;-67
2022/07/22 14:40:45;;;;;;;7.03;1.83;;;;;;;;;;5071980;28;20020;-67
2022/07/22 14:43:11;;;;;;;7.07;1.98;;;;;;;;;;5070149;28;20025;-67
2022/07/22 14:45:37;;;;;;;5.85;2.30;;;;;;;;;;5069022;28;20024;-67
2022/07/22 14:48:03;;;;;;;6.38;2.08;;;;;;;;;;5070268;28;20032;-67
2022/07/22 14:50:29;;;;;;;8.15;2.20;;;;;;;;;;5063921;28;20401;-67
2022/07/22 14:52:55;;;;;;;6.45;2.00;;;;;;;;;;5071625;28;20279;-67